Time;durP1;ratioP1;P1;durP2;ratioP2;P2;SDS_P1;SDS_P2;PMS_P1;PMS_P2;Temp;Humidity;BMP_temperature;BMP_pressure;BME280_temperature;BME280_humidity;BME280_pressure;Samples;Min_cycle;Max_cycle;Signal;HPM_P1;HPM_P2
2022/10/03 00:01:45;;;;;;;11.28;5.78;;;23.60;99.90;;;;;;1851661;76;21707;-84
2022/10/03 00:04:18;;;;;;;20.23;13.13;;;23.70;99.90;;;;;;1848756;76;21129;-85
2022/10/03 00:06:51;;;;;;;17.62;9.73;;;23.70;99.90;;;;;;1870911;76;21124;-85
2022/10/03 00:09:28;;;;;;;10.28;5.75;;;23.70;99.90;;;;;;1872505;76;21151;-86
2022/10/03 00:11:58;;;;;;;10.90;5.58;;;23.60;99.90;;;;;;1862677;76;21568;-85
2022/10/03 00:14:32;;;;;;;10.65;6.25;;;23.60;99.90;;;;;;1875438;76;21870;-85
2022/10/03 00:17:03;;;;;;;10.90;6.80;;;23.50;99.90;;;;;;1888520;76;21166;-86
2022/10/03 00:19:36;;;;;;;10.30;5.65;;;23.50;99.90;;;;;;1881597;75;21673;-87
2022/10/03 00:22:09;;;;;;;11.95;7.97;;;23.40;99.90;;;;;;1873079;75;21090;-86
2022/10/03 00:24:41;;;;;;;7.08;3.52;;;23.40;99.90;;;;;;1857952;76;21146;-87
2022/10/03 00:27:12;;;;;;;4.10;1.87;;;23.40;99.90;;;;;;1852066;75;21165;-86
2022/10/03 00:29:44;;;;;;;5.15;1.80;;;23.30;99.90;;;;;;1856160;76;21230;-88
2022/10/03 00:32:17;;;;;;;3.70;1.50;;;23.30;99.90;;;;;;1840746;76;21461;-85
2022/10/03 00:34:50;;;;;;;4.67;2.40;;;23.20;99.90;;;;;;1861175;76;21182;-86
2022/10/03 00:37:23;;;;;;;6.45;2.92;;;23.20;99.90;;;;;;1855599;76;21119;-86
2022/10/03 00:39:54;;;;;;;4.20;2.60;;;23.10;99.90;;;;;;1863273;76;21156;-85
2022/10/03 00:42:28;;;;;;;3.80;1.20;;;23.10;99.90;;;;;;1846589;76;21083;-84
2022/10/03 00:45:01;;;;;;;3.67;0.93;;;23.10;99.90;;;;;;1839326;76;21132;-85
2022/10/03 00:47:32;;;;;;;2.77;1.17;;;23.10;99.90;;;;;;1841844;76;21127;-86
2022/10/03 00:50:05;;;;;;;12.30;2.20;;;23.10;99.90;;;;;;1856812;76;21215;-85
2022/10/03 00:52:39;;;;;;;2.05;1.20;;;23.10;99.90;;;;;;1856279;76;21689;-85
2022/10/03 00:55:13;;;;;;;5.72;2.77;;;23.10;99.90;;;;;;1799298;78;21157;-85
2022/10/03 00:57:47;;;;;;;5.85;3.17;;;23.10;99.90;;;;;;1849295;77;21517;-85
2022/10/03 01:00:19;;;;;;;7.10;3.55;;;23.10;99.90;;;;;;1834702;77;21179;-84
2022/10/03 01:02:52;;;;;;;6.10;3.02;;;23.10;99.90;;;;;;1826159;77;21166;-84
2022/10/03 01:05:25;;;;;;;3.58;1.50;;;23.10;99.90;;;;;;1795474;78;21171;-84
2022/10/03 01:07:58;;;;;;;6.05;3.08;;;23.10;99.90;;;;;;1870811;76;21594;-85
2022/10/03 01:10:31;;;;;;;5.58;2.60;;;23.10;99.90;;;;;;1871310;76;21099;-85
2022/10/03 01:13:04;;;;;;;6.62;3.90;;;23.10;99.90;;;;;;1863528;76;21137;-84
2022/10/03 01:15:36;;;;;;;7.33;4.70;;;23.10;99.90;;;;;;1854504;76;21127;-85
2022/10/03 01:18:09;;;;;;;6.85;3.77;;;23.10;99.90;;;;;;1860946;75;21144;-84
2022/10/03 01:20:42;;;;;;;7.35;3.80;;;23.10;99.90;;;;;;1874099;76;21123;-84
2022/10/03 01:23:15;;;;;;;4.65;2.80;;;23.10;99.90;;;;;;1845550;76;21262;-85
2022/10/03 01:25:51;;;;;;;4.50;1.98;;;23.10;99.90;;;;;;1855960;76;21167;-85
2022/10/03 01:31:01;;;;;;;6.87;2.70;;;23.10;99.90;;;;;;1865994;76;21065;-87
2022/10/03 01:33:33;;;;;;;5.78;2.62;;;23.10;99.90;;;;;;1864913;75;21093;-85
2022/10/03 01:36:16;;;;;;;5.00;2.85;;;23.10;99.90;;;;;;1854443;76;21136;-85
2022/10/03 01:38:47;;;;;;;4.90;2.00;;;23.10;99.90;;;;;;1860767;76;21192;-86
2022/10/03 01:41:25;;;;;;;4.78;2.20;;;23.10;99.90;;;;;;1865427;76;21144;-86
2022/10/03 01:43:54;;;;;;;5.92;1.90;;;23.10;99.90;;;;;;1872921;76;21083;-86
2022/10/03 01:46:28;;;;;;;6.65;2.10;;;23.10;99.90;;;;;;1839187;76;21108;-86
2022/10/03 01:49:03;;;;;;;5.05;2.08;;;23.00;99.90;;;;;;1871564;76;21185;-87
2022/10/03 01:51:37;;;;;;;2.87;1.60;;;23.00;99.90;;;;;;1856970;76;21135;-84
2022/10/03 01:54:10;;;;;;;9.50;2.00;;;23.00;99.90;;;;;;1854380;76;21242;-85
2022/10/03 01:56:43;;;;;;;5.95;1.67;;;23.00;99.90;;;;;;1846052;76;21127;-85
2022/10/03 01:59:17;;;;;;;8.65;2.62;;;23.00;99.90;;;;;;1859152;74;21688;-86
2022/10/03 02:01:48;;;;;;;3.83;2.55;;;23.00;99.90;;;;;;1855019;75;21114;-87
2022/10/03 02:04:23;;;;;;;4.67;2.50;;;23.10;99.90;;;;;;1875196;74;21134;-84
2022/10/03 02:06:54;;;;;;;4.10;2.60;;;23.10;99.90;;;;;;1856561;75;21143;-73
2022/10/03 02:09:28;;;;;;;3.87;1.52;;;23.10;99.90;;;;;;1858723;75;21231;-74
2022/10/03 02:12:02;;;;;;;4.85;2.42;;;23.10;99.90;;;;;;1860235;75;21734;-74
2022/10/03 02:14:35;;;;;;;3.87;2.50;;;23.00;99.90;;;;;;1857298;76;21180;-73
2022/10/03 02:17:08;;;;;;;5.40;2.62;;;23.00;99.90;;;;;;1864798;74;21565;-73
2022/10/03 02:19:42;;;;;;;4.25;2.12;;;23.00;99.90;;;;;;1878089;75;21211;-74
2022/10/03 02:22:15;;;;;;;3.35;1.87;;;23.10;99.90;;;;;;1842787;77;21175;-73
2022/10/03 02:24:48;;;;;;;4.40;2.20;;;23.00;99.90;;;;;;1845390;76;22326;-72
2022/10/03 02:27:20;;;;;;;4.75;2.08;;;23.10;99.90;;;;;;1823377;76;21197;-73
2022/10/03 02:29:53;;;;;;;2.95;1.20;;;23.10;99.90;;;;;;1884004;75;21693;-74
2022/10/03 02:32:26;;;;;;;5.17;1.40;;;23.10;99.90;;;;;;1870399;75;21201;-73
2022/10/03 02:35:00;;;;;;;2.65;1.10;;;23.10;99.90;;;;;;1836344;77;21744;-73
2022/10/03 02:37:34;;;;;;;5.17;1.50;;;23.20;99.90;;;;;;1808690;77;21555;-73
2022/10/03 02:40:07;;;;;;;4.22;2.27;;;23.20;99.90;;;;;;1817996;77;21142;-74
2022/10/03 02:42:40;;;;;;;3.37;1.27;;;23.30;99.90;;;;;;1856049;76;21613;-74
2022/10/03 02:45:13;;;;;;;4.22;1.20;;;23.30;99.90;;;;;;1809146;78;21756;-74
2022/10/03 02:47:46;;;;;;;3.37;1.70;;;23.40;99.90;;;;;;1860573;75;21645;-73
2022/10/03 02:50:19;;;;;;;3.87;2.08;;;23.40;99.90;;;;;;1857824;76;21113;-73
2022/10/03 02:52:52;;;;;;;2.62;1.90;;;23.40;99.90;;;;;;1867144;75;21682;-73
2022/10/03 02:55:26;;;;;;;6.47;1.70;;;23.50;99.90;;;;;;1859179;75;21651;-74
2022/10/03 02:58:00;;;;;;;3.83;1.80;;;23.50;99.90;;;;;;1844694;75;21144;-75
2022/10/03 03:00:32;;;;;;;4.20;1.90;;;23.60;99.90;;;;;;1873436;75;21206;-74
2022/10/03 03:03:05;;;;;;;3.33;1.55;;;23.60;99.90;;;;;;1864711;75;21521;-74
2022/10/03 03:05:37;;;;;;;3.17;1.20;;;23.70;99.90;;;;;;1871926;75;21610;-75
2022/10/03 03:08:09;;;;;;;2.40;1.20;;;23.70;99.90;;;;;;1821125;77;21233;-73
2022/10/03 03:10:43;;;;;;;2.37;1.22;;;23.70;99.90;;;;;;1818951;78;22140;-74
2022/10/03 03:13:16;;;;;;;4.40;1.52;;;23.80;99.90;;;;;;1810130;78;21621;-75
2022/10/03 03:15:50;;;;;;;3.77;1.35;;;23.90;99.90;;;;;;1838748;77;21155;-74
2022/10/03 03:18:23;;;;;;;1.42;1.00;;;23.80;99.90;;;;;;1800953;78;21670;-74
2022/10/03 03:20:56;;;;;;;3.72;1.42;;;23.90;99.90;;;;;;1823798;78;21224;-75
2022/10/03 03:23:29;;;;;;;2.50;1.10;;;23.90;99.90;;;;;;1819343;77;21103;-74
2022/10/03 03:26:02;;;;;;;3.00;1.52;;;24.00;99.90;;;;;;1804150;76;21204;-74
2022/10/03 03:28:32;;;;;;;2.15;1.20;;;24.00;99.90;;;;;;1809764;77;21520;-74
2022/10/03 03:31:06;;;;;;;1.90;1.00;;;24.10;99.90;;;;;;1808296;78;21124;-75
2022/10/03 03:33:39;;;;;;;1.85;0.90;;;24.10;99.90;;;;;;1825476;78;21658;-75
2022/10/03 03:36:13;;;;;;;3.62;1.12;;;24.20;99.90;;;;;;1861214;76;21204;-74
2022/10/03 03:38:45;;;;;;;2.80;0.90;;;24.20;99.90;;;;;;1869551;76;21218;-74
2022/10/03 03:41:19;;;;;;;2.33;0.90;;;24.30;99.90;;;;;;1826418;77;22380;-74
2022/10/03 03:43:54;;;;;;;2.35;0.95;;;24.30;99.90;;;;;;1835800;77;21959;-74
2022/10/03 03:46:28;;;;;;;3.25;1.30;;;24.40;99.90;;;;;;1827755;77;21176;-73
2022/10/03 03:49:00;;;;;;;2.92;1.37;;;24.50;99.90;;;;;;1844222;77;21614;-73
2022/10/03 03:51:34;;;;;;;2.20;1.20;;;24.60;99.90;;;;;;1844523;77;21606;-74
2022/10/03 03:54:08;;;;;;;2.70;1.55;;;24.70;99.90;;;;;;1815510;77;21626;-74
2022/10/03 03:56:39;;;;;;;3.08;1.17;;;24.80;99.90;;;;;;1793799;78;21174;-74
2022/10/03 03:59:13;;;;;;;2.45;1.40;;;24.90;99.90;;;;;;1786791;80;22142;-74
2022/10/03 04:01:47;;;;;;;2.50;1.20;;;25.00;99.90;;;;;;1835642;77;21285;-73
2022/10/03 04:04:21;;;;;;;3.92;1.85;;;25.20;99.90;;;;;;1845968;77;21750;-73
2022/10/03 04:06:55;;;;;;;4.17;1.65;;;25.30;99.90;;;;;;1859530;74;21164;-73
2022/10/03 04:09:27;;;;;;;3.70;1.40;;;25.40;99.90;;;;;;1854833;75;21624;-73
2022/10/03 04:11:58;;;;;;;2.22;1.27;;;25.60;99.90;;;;;;1857095;75;21410;-73
2022/10/03 04:14:32;;;;;;;4.40;1.70;;;25.70;99.90;;;;;;1843156;76;21285;-75
2022/10/03 04:19:39;;;;;;;2.62;0.90;;;25.90;99.90;;;;;;1845434;77;21172;-74
2022/10/03 04:22:13;;;;;;;1.42;0.90;;;26.00;99.90;;;;;;1831854;77;21622;-74
2022/10/03 04:24:46;;;;;;;2.20;1.10;;;26.10;99.90;;;;;;1787666;78;21648;-72
2022/10/03 04:27:20;;;;;;;2.08;0.93;;;26.20;99.90;;;;;;1786587;78;21226;-72
2022/10/03 04:29:54;;;;;;;1.22;0.70;;;26.30;99.90;;;;;;1791094;78;21679;-72
2022/10/03 04:32:27;;;;;;;2.17;0.70;;;26.40;99.90;;;;;;1780927;78;21161;-72
2022/10/03 04:35:00;;;;;;;2.58;1.00;;;26.50;99.90;;;;;;1850842;76;21234;-72
2022/10/03 04:37:32;;;;;;;1.60;0.70;;;26.60;99.90;;;;;;1842886;77;21140;-72
2022/10/03 04:40:05;;;;;;;1.60;0.80;;;26.80;99.90;;;;;;1845392;77;21183;-72
2022/10/03 04:42:39;;;;;;;1.90;0.90;;;26.80;99.90;;;;;;1841744;76;21145;-72
2022/10/03 04:45:13;;;;;;;1.42;0.50;;;26.90;99.90;;;;;;1846614;76;21219;-72
2022/10/03 04:47:46;;;;;;;2.60;0.70;;;27.00;99.90;;;;;;1845916;77;21616;-72
2022/10/03 04:50:20;;;;;;;2.42;0.78;;;27.10;99.90;;;;;;1846786;77;21266;-73
2022/10/03 04:52:53;;;;;;;3.60;1.50;;;27.10;99.90;;;;;;1843204;77;21226;-73
2022/10/03 04:55:26;;;;;;;2.22;0.70;;;27.20;99.90;;;;;;1846709;76;21156;-72
2022/10/03 04:57:59;;;;;;;3.42;1.30;;;27.20;99.90;;;;;;1847170;76;21224;-74
2022/10/03 05:00:34;;;;;;;2.87;1.00;;;27.10;99.90;;;;;;1849332;77;21141;-73
2022/10/03 05:03:06;;;;;;;2.05;0.90;;;27.10;99.90;;;;;;1859247;76;21643;-72
2022/10/03 05:05:39;;;;;;;1.15;0.60;;;27.00;99.90;;;;;;1853726;75;21171;-72
2022/10/03 05:08:12;;;;;;;1.85;0.70;;;27.00;99.90;;;;;;1853940;77;22054;-72
2022/10/03 05:10:46;;;;;;;2.27;0.80;;;27.00;99.90;;;;;;1853761;77;21161;-72
2022/10/03 05:13:17;;;;;;;2.40;0.80;;;27.00;99.90;;;;;;1852113;76;21105;-71
2022/10/03 05:15:51;;;;;;;1.67;0.72;;;27.00;99.90;;;;;;1831503;75;21210;-72
2022/10/03 05:18:24;;;;;;;1.30;0.60;;;27.10;99.90;;;;;;1851405;75;21647;-73
2022/10/03 05:20:56;;;;;;;1.25;0.60;;;27.30;99.90;;;;;;1790457;77;21119;-72
2022/10/03 05:23:30;;;;;;;1.50;0.45;;;27.40;99.90;;;;;;1841523;77;21162;-73
2022/10/03 05:26:03;;;;;;;3.25;0.68;;;27.50;99.90;;;;;;1862361;75;21190;-72
2022/10/03 05:28:37;;;;;;;1.45;0.60;;;27.60;99.90;;;;;;1844743;75;21666;-72
2022/10/03 05:31:11;;;;;;;1.47;0.60;;;27.60;99.90;;;;;;1855980;77;21672;-73
2022/10/03 05:33:44;;;;;;;2.25;0.70;;;27.60;99.90;;;;;;1856860;77;21136;-72
2022/10/03 05:36:17;;;;;;;2.25;0.68;;;27.50;99.90;;;;;;1860430;75;21156;-72
2022/10/03 05:38:50;;;;;;;1.25;0.78;;;27.40;99.90;;;;;;1858857;77;21510;-72
2022/10/03 05:41:24;;;;;;;3.05;1.10;;;27.30;99.90;;;;;;1857189;77;21643;-72
2022/10/03 05:43:57;;;;;;;2.22;1.10;;;27.20;99.90;;;;;;1859542;76;21684;-72
2022/10/03 05:46:30;;;;;;;4.12;1.00;;;27.10;99.90;;;;;;1872540;75;21215;-72
2022/10/03 05:49:07;;;;;;;3.40;1.32;;;27.00;99.90;;;;;;1865487;75;21120;-71
2022/10/03 05:51:41;;;;;;;1.90;1.30;;;26.90;99.90;;;;;;1859569;77;21728;-71
2022/10/03 05:54:15;;;;;;;2.58;1.20;;;26.90;99.90;;;;;;1846125;75;21149;-74
2022/10/03 05:56:48;;;;;;;2.42;1.27;;;26.90;99.90;;;;;;1857863;77;21163;-72
2022/10/03 05:59:22;;;;;;;3.12;1.40;;;26.90;99.90;;;;;;1851199;77;21545;-72
2022/10/03 06:01:57;;;;;;;3.92;1.67;;;26.90;99.90;;;;;;1845251;77;21493;-72
2022/10/03 06:04:30;;;;;;;3.47;1.55;;;27.00;99.90;;;;;;1847830;76;21510;-71
2022/10/03 06:07:02;;;;;;;2.62;1.30;;;27.00;99.90;;;;;;1848442;76;21655;-71
2022/10/03 06:09:35;;;;;;;3.35;1.40;;;27.00;99.90;;;;;;1844869;77;21628;-73
2022/10/03 06:12:09;;;;;;;6.55;1.85;;;27.10;99.90;;;;;;1835846;77;21649;-73
2022/10/03 06:14:42;;;;;;;3.70;1.98;;;27.10;99.90;;;;;;1831796;77;21166;-71
2022/10/03 06:17:18;;;;;;;3.42;1.30;;;27.10;99.90;;;;;;1808881;77;21788;-71
2022/10/03 06:19:50;;;;;;;3.33;1.07;;;27.20;99.90;;;;;;1845622;76;21747;-72
2022/10/03 06:22:22;;;;;;;2.67;1.22;;;27.30;99.90;;;;;;1846908;77;21399;-73
2022/10/03 06:24:56;;;;;;;2.22;1.20;;;27.60;99.90;;;;;;1850202;76;21868;-72
2022/10/03 06:27:28;;;;;;;2.00;1.02;;;27.80;99.90;;;;;;1846921;77;21180;-72
2022/10/03 06:30:02;;;;;;;3.40;1.10;;;28.00;99.90;;;;;;1846267;77;21580;-72
2022/10/03 06:32:35;;;;;;;2.50;1.30;;;28.10;99.90;;;;;;1846310;77;21179;-72
2022/10/03 06:35:10;;;;;;;3.42;1.20;;;28.20;99.90;;;;;;1846820;76;21131;-72
2022/10/03 06:37:47;;;;;;;3.08;1.17;;;28.20;99.90;;;;;;1847281;77;21640;-73
2022/10/03 06:40:20;;;;;;;3.98;0.90;;;28.10;99.90;;;;;;1846315;76;21148;-72
2022/10/03 06:42:52;;;;;;;2.72;1.10;;;28.00;99.90;;;;;;1837692;77;21755;-72
2022/10/03 06:45:26;;;;;;;2.98;1.40;;;27.90;99.90;;;;;;1848843;76;21335;-73
2022/10/03 06:47:59;;;;;;;2.10;1.20;;;27.90;99.90;;;;;;1848053;76;21120;-72
2022/10/03 06:50:31;;;;;;;4.70;1.32;;;28.00;99.90;;;;;;1846136;76;21553;-72
2022/10/03 06:53:03;;;;;;;3.35;1.40;;;28.00;99.90;;;;;;1845135;78;21450;-72
2022/10/03 06:55:35;;;;;;;4.03;1.40;;;28.00;99.90;;;;;;1851944;76;21529;-72
2022/10/03 06:58:08;;;;;;;2.27;1.10;;;28.10;99.90;;;;;;1845212;77;21716;-73
2022/10/03 07:00:42;;;;;;;4.30;1.10;;;28.20;99.90;;;;;;1863281;75;21104;-72
2022/10/03 07:03:15;;;;;;;2.00;0.90;;;28.20;99.90;;;;;;1866948;75;21082;-72
2022/10/03 07:05:49;;;;;;;1.42;0.70;;;28.20;99.90;;;;;;1855991;76;21514;-71
2022/10/03 07:08:23;;;;;;;2.62;0.60;;;28.20;99.90;;;;;;1855808;77;21616;-73
2022/10/03 07:10:56;;;;;;;0.95;0.50;;;28.20;99.90;;;;;;1854076;76;21128;-74
2022/10/03 07:13:48;;;;;;;1.92;0.80;;;28.30;99.90;;;;;;1866647;77;21195;-74
2022/10/03 07:16:23;;;;;;;1.47;0.85;;;28.40;99.90;;;;;;1916364;74;21111;-74
2022/10/03 07:18:56;;;;;;;1.75;0.90;;;28.30;99.90;;;;;;1869923;75;21097;-74
2022/10/03 07:21:28;;;;;;;2.02;1.00;;;28.30;99.90;;;;;;1862177;76;21096;-74
2022/10/03 07:24:02;;;;;;;2.20;0.88;;;28.20;99.90;;;;;;1871325;75;21123;-74
2022/10/03 07:26:35;;;;;;;3.33;0.80;;;28.10;99.90;;;;;;1832284;77;21177;-73
2022/10/03 07:29:08;;;;;;;1.20;0.60;;;28.00;99.90;;;;;;1879273;75;21117;-74
2022/10/03 07:31:42;;;;;;;2.45;0.88;;;27.90;99.90;;;;;;1906786;74;21138;-73
2022/10/03 07:34:16;;;;;;;1.92;0.90;;;27.90;99.90;;;;;;1897556;75;21099;-73
2022/10/03 07:39:24;;;;;;;2.92;0.93;;;28.00;99.90;;;;;;1902117;74;21633;-73
2022/10/03 07:41:59;;;;;;;1.50;0.70;;;28.00;99.90;;;;;;1859326;77;21164;-73
2022/10/03 07:44:34;;;;;;;1.20;0.70;;;28.10;99.90;;;;;;1840000;78;21707;-73
2022/10/03 07:47:04;;;;;;;;;;;28.20;99.90;;;;;;1820781;76;21217;-73
2022/10/03 07:49:39;;;;;;;2.83;1.00;;;28.20;99.90;;;;;;1886114;75;20132;-73
2022/10/03 07:52:14;;;;;;;3.22;1.00;;;28.20;99.90;;;;;;1862965;75;21290;-74
2022/10/03 07:54:46;;;;;;;1.70;0.70;;;28.30;99.90;;;;;;1875863;76;21145;-74
2022/10/03 07:57:20;;;;;;;5.37;1.32;;;28.30;99.90;;;;;;1857376;75;21097;-74
2022/10/03 07:59:53;;;;;;;1.37;0.70;;;28.30;99.90;;;;;;1868180;76;21105;-74
2022/10/03 08:02:27;;;;;;;2.33;0.80;;;28.40;99.90;;;;;;1870010;76;21257;-73
2022/10/03 08:05:01;;;;;;;1.90;0.70;;;28.40;99.90;;;;;;1871889;75;21690;-74
2022/10/03 08:07:34;;;;;;;1.27;0.65;;;28.50;99.90;;;;;;1858464;77;21161;-73
2022/10/03 08:10:07;;;;;;;2.45;1.00;;;28.50;99.90;;;;;;1911558;73;21070;-73
2022/10/03 08:12:40;;;;;;;2.30;0.60;;;28.50;99.90;;;;;;1864975;75;21618;-74
2022/10/03 08:15:10;;;;;;;1.82;0.60;;;28.60;99.90;;;;;;1823843;78;21156;-74
2022/10/03 08:17:44;;;;;;;1.55;0.68;;;28.70;99.90;;;;;;1941392;73;21126;-74
2022/10/03 08:20:14;;;;;;;1.98;0.70;;;28.70;99.90;;;;;;1912568;74;21634;-74
2022/10/03 08:22:45;;;;;;;2.75;0.68;;;28.70;99.90;;;;;;1913090;73;21164;-74
2022/10/03 08:25:17;;;;;;;1.65;0.40;;;28.60;99.90;;;;;;1914394;73;21175;-73
2022/10/03 08:27:51;;;;;;;2.80;0.50;;;28.40;99.90;;;;;;1908623;73;21749;-73
2022/10/03 08:30:24;;;;;;;1.95;0.90;;;28.20;99.90;;;;;;1908949;75;21161;-73
2022/10/03 08:32:57;;;;;;;2.27;0.80;;;28.00;99.90;;;;;;1912012;73;21618;-73
2022/10/03 08:35:33;;;;;;;2.42;0.60;;;27.80;99.90;;;;;;1905470;73;21518;-75
2022/10/03 08:38:05;;;;;;;1.57;0.78;;;27.70;99.90;;;;;;1916187;73;21594;-73
2022/10/03 08:40:39;;;;;;;1.15;0.57;;;27.50;99.90;;;;;;1929370;74;21646;-74
2022/10/03 08:43:13;;;;;;;1.82;0.60;;;27.40;99.90;;;;;;1910859;75;21644;-74
2022/10/03 08:45:46;;;;;;;1.80;0.72;;;27.30;99.90;;;;;;1937118;73;21518;-75
2022/10/03 08:48:18;;;;;;;2.00;0.80;;;27.30;99.90;;;;;;1922166;73;21170;-74
2022/10/03 08:50:52;;;;;;;2.40;0.82;;;27.20;99.90;;;;;;1913221;73;21489;-74
2022/10/03 08:53:26;;;;;;;1.50;0.62;;;27.20;99.90;;;;;;1935908;73;21640;-74
2022/10/03 08:55:59;;;;;;;1.62;0.80;;;27.20;99.90;;;;;;1910961;75;21558;-74
2022/10/03 08:58:33;;;;;;;1.30;0.70;;;27.30;99.90;;;;;;1913498;73;21610;-74
2022/10/03 09:01:06;;;;;;;1.42;0.72;;;27.40;99.90;;;;;;1909561;73;21129;-74
2022/10/03 09:03:40;;;;;;;1.60;0.57;;;27.50;99.90;;;;;;1902863;73;22563;-74
2022/10/03 09:06:12;;;;;;;2.08;0.90;;;27.50;99.90;;;;;;1925519;73;21123;-74
2022/10/03 09:08:45;;;;;;;1.72;0.75;;;27.50;99.90;;;;;;1912893;73;21162;-74
2022/10/03 09:11:19;;;;;;;1.55;0.90;;;27.60;99.90;;;;;;1905411;73;21151;-74
2022/10/03 09:13:52;;;;;;;5.40;0.70;;;27.60;99.90;;;;;;1926122;73;21580;-73
2022/10/03 09:16:25;;;;;;;2.90;1.02;;;27.70;99.90;;;;;;1897201;74;21748;-74
2022/10/03 09:18:57;;;;;;;1.60;0.80;;;27.60;99.90;;;;;;1897234;74;21143;-74
2022/10/03 09:21:30;;;;;;;3.70;1.90;;;27.70;99.90;;;;;;1900141;74;21109;-73
2022/10/03 09:24:04;;;;;;;2.47;0.90;;;27.60;99.90;;;;;;1891300;74;21181;-74
2022/10/03 09:26:36;;;;;;;1.70;0.80;;;27.60;99.90;;;;;;1901463;75;21524;-74
2022/10/03 09:29:10;;;;;;;2.27;0.68;;;27.50;99.90;;;;;;1889502;74;21571;-74
2022/10/03 09:31:43;;;;;;;2.35;1.10;;;27.50;99.90;;;;;;1826826;76;21672;-74
2022/10/03 09:34:13;;;;;;;3.45;1.20;;;27.40;99.90;;;;;;1817934;77;21253;-75
2022/10/03 09:36:45;;;;;;;4.22;1.07;;;27.40;99.90;;;;;;1827832;77;21543;-74
2022/10/03 09:39:17;;;;;;;1.50;0.70;;;27.30;99.90;;;;;;1834221;77;21725;-74
2022/10/03 09:41:50;;;;;;;2.05;0.55;;;27.30;99.90;;;;;;1844802;77;21120;-74
2022/10/03 09:44:20;;;;;;;1.42;0.70;;;27.30;99.90;;;;;;1831477;77;21155;-73
2022/10/03 09:49:25;;;;;;;4.12;1.55;;;27.20;99.90;;;;;;1884764;74;21735;-73
2022/10/03 09:51:58;;;;;;;3.27;1.22;;;27.20;99.90;;;;;;1823441;76;21614;-73
2022/10/03 09:54:31;;;;;;;2.12;1.10;;;27.20;99.90;;;;;;1844909;77;21162;-73
2022/10/03 09:57:05;;;;;;;3.58;1.50;;;27.10;99.90;;;;;;1878687;76;21578;-74
2022/10/03 09:59:37;;;;;;;1.60;1.02;;;27.10;99.90;;;;;;1879544;75;21213;-75
2022/10/03 10:02:09;;;;;;;2.37;1.10;;;27.10;99.90;;;;;;1903755;74;21588;-74
2022/10/03 10:04:42;;;;;;;2.98;1.22;;;27.10;99.90;;;;;;1878847;74;21060;-73
2022/10/03 10:07:17;;;;;;;3.67;1.20;;;27.10;99.90;;;;;;1873089;76;21187;-74
2022/10/03 10:09:51;;;;;;;3.17;1.12;;;27.00;99.90;;;;;;1884390;75;21160;-73
2022/10/03 10:12:25;;;;;;;3.15;1.10;;;27.10;99.90;;;;;;1888117;74;21636;-74
2022/10/03 10:14:57;;;;;;;1.72;0.95;;;27.00;99.90;;;;;;1881426;74;21127;-74
2022/10/03 10:17:28;;;;;;;2.42;1.10;;;27.00;99.90;;;;;;1854415;74;21649;-74
2022/10/03 10:20:04;;;;;;;2.87;0.95;;;27.00;99.90;;;;;;1846448;76;21556;-73
2022/10/03 10:22:39;;;;;;;1.70;0.88;;;27.00;99.90;;;;;;1814329;77;21181;-73
2022/10/03 10:25:11;;;;;;;2.30;1.00;;;27.00;99.90;;;;;;1803837;78;21158;-75
2022/10/03 10:27:45;;;;;;;3.25;1.00;;;27.00;99.90;;;;;;1792134;78;21784;-73
2022/10/03 10:30:36;;;;;;;4.97;1.50;;;26.90;99.90;;;;;;1844742;76;21151;-73
2022/10/03 10:33:10;;;;;;;3.08;1.07;;;26.90;99.90;;;;;;1859116;76;21539;-73
2022/10/03 10:35:44;;;;;;;4.05;1.20;;;26.90;99.90;;;;;;1867053;76;21661;-74
2022/10/03 10:38:17;;;;;;;3.90;1.10;;;26.90;99.90;;;;;;1862379;75;21620;-72
2022/10/03 10:40:49;;;;;;;4.00;1.57;;;26.90;99.90;;;;;;1853938;76;21159;-72
2022/10/03 10:43:21;;;;;;;3.02;1.37;;;26.90;99.90;;;;;;1878269;75;21247;-73
2022/10/03 10:45:54;;;;;;;3.02;1.27;;;26.90;99.90;;;;;;1882956;75;21190;-73
2022/10/03 10:48:28;;;;;;;3.58;1.50;;;26.90;99.90;;;;;;1839016;76;21182;-73
2022/10/03 10:51:19;;;;;;;3.50;2.02;;;26.90;99.90;;;;;;1842588;76;21638;-73
2022/10/03 10:53:51;;;;;;;4.00;2.40;;;26.90;99.90;;;;;;1832030;77;21536;-74
2022/10/03 10:56:26;;;;;;;8.83;3.27;;;26.90;99.90;;;;;;1869674;75;21583;-75
2022/10/03 10:58:59;;;;;;;5.53;2.90;;;26.80;99.90;;;;;;1862811;75;21155;-74
2022/10/03 11:01:30;;;;;;;7.17;2.55;;;26.90;99.90;;;;;;1863869;75;21602;-74
2022/10/03 11:04:05;;;;;;;3.90;2.30;;;26.80;99.90;;;;;;1854368;76;21676;-73
2022/10/03 11:06:38;;;;;;;3.77;1.85;;;26.80;99.90;;;;;;1861487;75;21622;-74
2022/10/03 11:09:10;;;;;;;7.58;2.10;;;26.80;99.90;;;;;;1857460;75;21307;-73
2022/10/03 11:11:43;;;;;;;5.35;2.37;;;26.80;99.90;;;;;;1873164;76;21142;-74
2022/10/03 11:14:17;;;;;;;4.33;2.15;;;26.80;99.90;;;;;;1882241;75;21575;-73
2022/10/03 11:16:53;;;;;;;3.15;1.98;;;26.80;99.90;;;;;;1850988;74;21638;-74
2022/10/03 11:19:25;;;;;;;6.70;2.90;;;26.80;99.90;;;;;;1864722;75;21540;-73
2022/10/03 11:22:03;;;;;;;5.25;2.10;;;26.80;99.90;;;;;;1848695;75;21671;-74
2022/10/03 11:24:35;;;;;;;4.75;2.25;;;26.70;99.90;;;;;;1863564;76;21126;-75
2022/10/03 11:27:09;;;;;;;6.03;1.92;;;26.70;99.90;;;;;;1813020;77;21148;-73
2022/10/03 11:29:42;;;;;;;3.65;2.37;;;26.70;99.90;;;;;;1864068;75;21060;-73
2022/10/03 11:32:15;;;;;;;6.78;2.62;;;26.70;99.90;;;;;;1849276;76;21123;-73
2022/10/03 11:34:48;;;;;;;4.10;1.98;;;26.70;99.90;;;;;;1856607;76;21284;-72
2022/10/03 11:37:22;;;;;;;9.40;2.80;;;26.70;99.90;;;;;;1867325;75;21765;-73
2022/10/03 11:39:55;;;;;;;5.42;2.12;;;26.70;99.90;;;;;;1827103;78;21114;-72
2022/10/03 11:42:31;;;;;;;6.65;3.02;;;26.70;99.90;;;;;;1856030;76;21055;-72
2022/10/03 11:45:03;;;;;;;5.00;3.40;;;26.70;99.90;;;;;;1838711;75;21253;-73
2022/10/03 11:47:36;;;;;;;6.87;3.80;;;26.70;99.90;;;;;;1850868;75;21191;-72
2022/10/03 11:50:09;;;;;;;5.12;2.60;;;26.70;99.90;;;;;;1866662;74;21126;-74
2022/10/03 11:52:42;;;;;;;5.40;2.75;;;26.60;99.90;;;;;;1859066;75;21095;-73
2022/10/03 11:55:16;;;;;;;6.28;2.77;;;26.70;99.90;;;;;;1859379;75;21221;-74
2022/10/03 11:57:49;;;;;;;8.73;4.17;;;26.60;99.90;;;;;;1849905;75;21622;-74
2022/10/03 12:00:22;;;;;;;13.90;5.25;;;26.60;99.90;;;;;;1861756;75;21510;-74
2022/10/03 12:02:56;;;;;;;8.35;4.80;;;26.60;99.90;;;;;;1813296;77;21104;-74
2022/10/03 12:05:29;;;;;;;6.33;3.67;;;26.60;99.90;;;;;;1856451;75;21630;-75
2022/10/03 12:10:38;;;;;;;7.67;2.65;;;26.60;99.90;;;;;;1865367;74;21143;-87
2022/10/03 12:13:13;;;;;;;7.35;2.33;;;26.50;99.90;;;;;;1806126;78;21108;-85
2022/10/03 12:15:45;;;;;;;6.22;2.62;;;26.50;99.90;;;;;;1849226;76;21188;-86
2022/10/03 12:18:19;;;;;;;7.70;2.83;;;26.50;99.90;;;;;;1807824;78;21104;-86
2022/10/03 12:20:58;;;;;;;11.35;3.08;;;26.50;99.90;;;;;;1809984;77;21147;-86
2022/10/03 12:23:31;;;;;;;7.28;3.10;;;26.50;99.90;;;;;;1862002;76;21159;-86
2022/10/03 12:26:04;;;;;;;10.95;3.50;;;26.50;99.90;;;;;;1826823;77;21128;-86
2022/10/03 12:28:43;;;;;;;10.60;3.42;;;26.50;99.90;;;;;;1775426;81;21168;-86
2022/10/03 12:31:16;;;;;;;9.55;3.60;;;26.50;99.90;;;;;;1791035;79;21177;-87
2022/10/03 12:33:54;;;;;;;8.03;2.95;;;26.60;99.90;;;;;;1779732;80;21217;-87
2022/10/03 12:36:28;;;;;;;6.97;3.52;;;26.60;99.90;;;;;;1782342;80;21264;-88
2022/10/03 12:39:00;;;;;;;10.00;3.33;;;26.50;99.90;;;;;;1846794;76;21099;-87
2022/10/03 12:41:33;;;;;;;8.38;2.95;;;26.50;99.90;;;;;;1875128;75;21131;-87
2022/10/03 12:44:09;;;;;;;5.47;2.65;;;26.50;99.90;;;;;;1867816;76;21171;-86
2022/10/03 12:46:40;;;;;;;7.30;3.15;;;26.50;99.90;;;;;;1847990;77;21585;-87
2022/10/03 12:49:13;;;;;;;5.10;2.72;;;26.40;99.90;;;;;;1805114;79;21148;-86
2022/10/03 12:51:47;;;;;;;9.53;3.02;;;26.50;99.90;;;;;;1751377;79;21226;-85
2022/10/03 12:54:20;;;;;;;5.65;2.90;;;26.40;99.90;;;;;;1751871;80;21179;-87
2022/10/03 12:56:55;;;;;;;11.55;3.77;;;26.40;99.90;;;;;;1805042;77;21216;-87
2022/10/03 12:59:30;;;;;;;9.40;3.40;;;26.40;99.90;;;;;;1835433;77;21157;-85
2022/10/03 13:02:21;;;;;;;7.47;3.47;;;26.40;99.90;;;;;;1821637;77;21221;-87
2022/10/03 13:05:17;;;;;;;7.28;3.30;;;26.40;99.90;;;;;;1758878;78;21210;-87
2022/10/03 13:08:05;;;;;;;8.03;3.17;;;26.40;99.90;;;;;;1791762;79;21246;-87
2022/10/03 13:10:41;;;;;;;5.60;3.30;;;26.40;99.90;;;;;;1785619;79;21183;-84
2022/10/03 13:13:20;;;;;;;8.50;3.37;;;26.40;99.90;;;;;;1754249;80;21205;-88
2022/10/03 13:15:55;;;;;;;5.78;3.00;;;26.40;99.90;;;;;;1817022;78;21210;-86
2022/10/03 13:18:26;;;;;;;6.28;3.35;;;26.40;99.90;;;;;;1800193;78;21923;-87
2022/10/03 13:21:08;;;;;;;5.05;3.30;;;26.40;99.90;;;;;;1778196;79;21176;-86
2022/10/03 13:23:57;;;;;;;7.15;3.22;;;26.40;99.90;;;;;;1828795;77;21105;-86
2022/10/03 13:26:49;;;;;;;7.95;3.30;;;26.40;99.90;;;;;;1790500;79;21150;-85
2022/10/03 13:29:24;;;;;;;8.43;3.87;;;26.40;99.90;;;;;;1840147;77;21184;-87
2022/10/03 13:32:06;;;;;;;6.10;3.30;;;26.30;99.90;;;;;;1843553;75;21170;-86